Time;durP1;ratioP1;P1;durP2;ratioP2;P2;SDS_P1;SDS_P2;PMS_P1;PMS_P2;Temp;Humidity;BMP_temperature;BMP_pressure;BME280_temperature;BME280_humidity;BME280_pressure;Samples;Min_cycle;Max_cycle;Signal;HPM_P1;HPM_P2
2022/10/16 00:01:30;;;;;;;7.93;5.43;;;;;;;-141.28;100.00;49313.66;5133499;27;20209;-80
2022/10/16 00:03:58;;;;;;;7.63;5.43;;;;;;;-141.28;100.00;49317.56;5133166;27;20225;-76
2022/10/16 00:06:26;;;;;;;9.30;5.20;;;;;;;-141.28;100.00;49325.41;5133984;27;20222;-77
2022/10/16 00:08:58;;;;;;;7.43;5.37;;;;;;;-141.28;100.00;49345.03;5132919;27;20635;-76
2022/10/16 00:11:28;;;;;;;8.63;5.37;;;;;;;-141.28;100.00;49352.88;5134339;27;20678;-76
2022/10/16 00:13:58;;;;;;;10.43;5.57;;;;;;;-141.28;100.00;49329.34;5115648;27;20210;-77
2022/10/16 00:16:25;;;;;;;8.70;6.13;;;;;;;-141.28;100.00;49348.97;5132326;27;20209;-76
2022/10/16 00:18:53;;;;;;;7.87;5.33;;;;;;;-141.28;100.00;49323.44;5132460;27;20668;-78
2022/10/16 00:21:22;;;;;;;8.80;5.73;;;;;;;-141.28;100.00;49307.75;5112383;28;20268;-76
2022/10/16 00:23:52;;;;;;;8.13;5.33;;;;;;;-141.28;100.00;49329.34;5134596;27;20198;-75
2022/10/16 00:26:21;;;;;;;8.17;5.70;;;;;;;-141.28;100.00;49341.13;5133999;27;20707;-77
2022/10/16 00:28:48;;;;;;;6.97;5.10;;;;;;;-141.28;100.00;49376.44;5133168;27;20210;-76
2022/10/16 00:31:16;;;;;;;9.67;5.53;;;;;;;-141.28;100.00;49378.41;5133027;27;20206;-76
2022/10/16 00:33:43;;;;;;;8.70;5.17;;;;;;;-141.28;100.00;49392.13;5131889;27;20198;-79
2022/10/16 00:36:13;;;;;;;9.00;5.77;;;;;;;-141.28;100.00;49399.97;5132450;27;20210;-80
2022/10/16 00:38:41;;;;;;;12.87;7.73;;;;;;;-141.28;100.00;49403.91;5132783;28;20198;-75
2022/10/16 00:41:13;;;;;;;10.87;7.30;;;;;;;-141.28;100.00;49411.75;5119038;28;20285;-79
2022/10/16 00:43:44;;;;;;;13.07;7.83;;;;;;;-141.28;100.00;49431.38;5132518;28;20285;-76
2022/10/16 00:46:22;;;;;;;12.00;7.47;;;;;;;-141.28;100.00;49419.59;5132585;28;20700;-77
2022/10/16 00:48:54;;;;;;;15.97;10.13;;;;;;;-141.28;100.00;49405.88;5132269;28;20198;-78
2022/10/16 00:51:26;;;;;;;22.17;10.03;;;;;;;-141.28;100.00;49419.59;5132656;28;20241;-78
2022/10/16 00:53:53;;;;;;;20.47;11.90;;;;;;;-141.28;100.00;49407.84;5126129;28;20198;-76
2022/10/16 00:56:21;;;;;;;21.70;12.23;;;;;;;-141.28;100.00;49407.84;5132151;28;20614;-79
2022/10/16 00:58:49;;;;;;;20.97;11.60;;;;;;;-141.28;100.00;49380.34;5132235;27;20229;-77
2022/10/16 01:01:16;;;;;;;22.60;12.47;;;;;;;-141.28;100.00;49421.56;5119080;28;21019;-76
2022/10/16 01:03:45;;;;;;;19.10;11.93;;;;;;;-141.28;100.00;49396.06;5132759;28;20258;-81
2022/10/16 01:06:33;;;;;;;16.63;11.20;;;;;;;-141.28;100.00;49439.22;5131800;28;20226;-75
2022/10/16 01:09:11;;;;;;;21.03;11.73;;;;;;;-141.28;100.00;49429.41;5132369;28;20648;-79
2022/10/16 01:11:46;;;;;;;15.27;10.33;;;;;;;-141.28;100.00;49423.53;5132016;28;20205;-78
2022/10/16 01:14:23;;;;;;;17.73;11.23;;;;;;;-141.28;100.00;49419.59;5119531;28;20237;-76
2022/10/16 01:16:57;;;;;;;16.43;10.40;;;;;;;-141.28;100.00;49429.41;5142031;28;20205;-78
2022/10/16 01:19:37;;;;;;;23.47;10.73;;;;;;;-141.28;100.00;49443.16;5140492;28;20275;-74
2022/10/16 01:22:06;;;;;;;20.53;11.17;;;;;;;-141.28;100.00;49437.25;5134107;28;20214;-76
2022/10/16 01:24:40;;;;;;;20.57;10.50;;;;;;;-141.28;100.00;49447.06;5131238;28;20210;-79
2022/10/16 01:27:19;;;;;;;22.33;11.17;;;;;;;-141.28;100.00;49462.78;5132533;28;20294;-76
2022/10/16 01:29:54;;;;;;;18.73;11.43;;;;;;;-141.28;100.00;49502.03;5131890;28;20479;-77
2022/10/16 01:32:31;;;;;;;18.67;11.40;;;;;;;-141.28;100.00;49474.53;5132118;28;20209;-78
2022/10/16 01:35:03;;;;;;;12.97;6.63;;;;;;;-141.28;100.00;49502.03;5132322;28;20232;-77
2022/10/16 01:37:37;;;;;;;7.00;5.60;;;;;;;-141.28;100.00;49537.34;5131808;28;20905;-79
2022/10/16 01:40:08;;;;;;;9.10;5.60;;;;;;;-141.28;100.00;49486.31;5122210;28;20268;-76
2022/10/16 01:42:42;;;;;;;16.90;8.67;;;;;;;-141.28;100.00;49560.88;5128688;28;20443;-76
2022/10/16 01:45:13;;;;;;;12.40;6.70;;;;;;;-141.28;100.00;49533.41;5133091;27;20492;-78
2022/10/16 01:47:41;;;;;;;12.83;6.77;;;;;;;-141.28;100.00;49592.28;5135706;27;20535;-77
2022/10/16 01:50:09;;;;;;;13.87;7.20;;;;;;;-141.28;100.00;49576.59;5136294;27;20839;-78
2022/10/16 01:52:42;;;;;;;15.53;7.63;;;;;;;-141.28;100.00;49643.31;5135538;27;20525;-76
2022/10/16 01:55:13;;;;;;;13.70;7.80;;;;;;;-141.28;100.00;49651.16;5135325;27;20492;-76
2022/10/16 01:57:48;;;;;;;10.13;7.17;;;;;;;-141.28;100.00;49651.16;5123097;27;20474;-76
2022/10/16 02:00:17;;;;;;;11.10;7.47;;;;;;;-141.28;100.00;49659.00;5125069;27;20439;-77
2022/10/16 02:02:49;;;;;;;13.37;7.40;;;;;;;-141.28;100.00;49684.53;5122949;27;20449;-76
2022/10/16 02:05:23;;;;;;;15.37;7.90;;;;;;;-141.28;100.00;49678.63;5135058;27;20874;-78
2022/10/16 02:07:50;;;;;;;16.70;7.53;;;;;;;-141.28;100.00;49725.72;5134968;27;20471;-76
2022/10/16 02:10:19;;;;;;;12.20;7.80;;;;;;;-141.28;100.00;49757.13;5117747;27;20989;-76
2022/10/16 02:12:52;;;;;;;13.20;7.10;;;;;;;-141.28;100.00;49710.03;5136414;27;20508;-76
2022/10/16 02:15:19;;;;;;;10.00;6.93;;;;;;;-141.28;100.00;49764.97;5137196;27;20531;-76
2022/10/16 02:17:47;;;;;;;11.63;6.27;;;;;;;-141.28;100.00;49798.34;5136123;27;20875;-75
2022/10/16 02:20:14;;;;;;;14.20;6.63;;;;;;;-141.28;100.00;49786.56;5136749;27;20440;-76
2022/10/16 02:22:46;;;;;;;9.07;6.73;;;;;;;-141.28;100.00;49804.22;5135885;27;20198;-78
2022/10/16 02:25:18;;;;;;;12.03;6.87;;;;;;;-141.28;100.00;49827.78;5135142;27;20530;-76
2022/10/16 02:27:54;;;;;;;14.93;7.63;;;;;;;-141.28;100.00;49823.84;5134820;27;20448;-76
2022/10/16 02:30:25;;;;;;;17.57;8.93;;;;;;;-141.28;100.00;49780.69;5122338;27;20563;-76
2022/10/16 02:32:54;;;;;;;14.37;8.53;;;;;;;-141.28;100.00;49819.94;5133918;27;20247;-75
2022/10/16 02:35:23;;;;;;;21.27;9.23;;;;;;;-141.28;100.00;49819.94;5126286;27;20503;-78
2022/10/16 02:37:52;;;;;;;17.50;8.63;;;;;;;-141.28;100.00;49855.25;5130049;27;20447;-77
2022/10/16 02:40:20;;;;;;;16.73;9.30;;;;;;;-141.28;100.00;49890.56;5134922;27;20535;-77
2022/10/16 02:42:54;;;;;;;18.07;11.03;;;;;;;-141.28;100.00;49886.66;5134424;27;20844;-76
2022/10/16 02:45:21;;;;;;;15.10;9.00;;;;;;;-141.28;100.00;49906.28;5134815;27;20823;-76
2022/10/16 02:47:49;;;;;;;15.17;8.93;;;;;;;-141.28;100.00;49908.25;5135282;27;20904;-76
2022/10/16 02:50:16;;;;;;;16.87;9.33;;;;;;;-141.28;100.00;49921.97;5135410;27;20444;-79
2022/10/16 02:52:44;;;;;;;24.37;8.90;;;;;;;-141.28;100.00;49933.75;5135007;27;20954;-78
2022/10/16 02:55:11;;;;;;;16.27;8.57;;;;;;;-141.28;100.00;49918.06;5128544;27;20520;-76
2022/10/16 02:57:40;;;;;;;15.90;8.30;;;;;;;-141.28;100.00;49955.34;5133487;27;20463;-77
2022/10/16 03:00:12;;;;;;;18.63;8.20;;;;;;;-141.28;100.00;49976.94;5134457;27;20440;-79
2022/10/16 03:02:39;;;;;;;15.50;8.23;;;;;;;-141.28;100.00;50018.16;5134627;27;20436;-79
2022/10/16 03:05:07;;;;;;;16.77;7.93;;;;;;;-141.28;100.00;50031.88;5133971;27;20447;-75
2022/10/16 03:07:34;;;;;;;20.33;9.00;;;;;;;-141.28;100.00;50063.28;5134017;27;20484;-76
2022/10/16 03:10:01;;;;;;;15.27;8.57;;;;;;;-141.28;100.00;50055.44;5134011;27;20435;-76
2022/10/16 03:12:28;;;;;;;14.00;8.83;;;;;;;-141.28;100.00;50053.47;5133849;27;20466;-77
2022/10/16 03:14:56;;;;;;;14.77;10.40;;;;;;;-141.28;100.00;50082.91;5133924;27;20862;-77
2022/10/16 03:17:25;;;;;;;19.07;9.80;;;;;;;-141.28;100.00;50124.13;5134207;27;20536;-78
2022/10/16 03:19:52;;;;;;;17.27;9.43;;;;;;;-141.28;100.00;50100.56;5120497;27;20432;-75
2022/10/16 03:22:19;;;;;;;17.63;8.87;;;;;;;-141.28;100.00;50110.38;5133584;27;20454;-76
2022/10/16 03:24:46;;;;;;;15.63;8.53;;;;;;;-141.28;100.00;50104.50;5133884;27;20452;-77
2022/10/16 03:27:13;;;;;;;16.83;8.73;;;;;;;-141.28;100.00;50161.41;5133347;27;20480;-76
2022/10/16 03:29:40;;;;;;;14.10;8.83;;;;;;;-141.28;100.00;50161.41;5133331;27;20455;-77
2022/10/16 03:32:07;;;;;;;15.43;8.53;;;;;;;-141.28;100.00;50135.91;5133707;27;20447;-79
2022/10/16 03:34:35;;;;;;;14.57;9.10;;;;;;;-141.28;100.00;50202.63;5132808;27;20448;-75
2022/10/16 03:37:03;;;;;;;16.47;8.70;;;;;;;-141.28;100.00;50232.06;5133939;27;20909;-76
2022/10/16 03:39:30;;;;;;;18.70;9.60;;;;;;;-141.28;100.00;50267.41;5134794;27;20444;-74
2022/10/16 03:41:57;;;;;;;17.40;8.97;;;;;;;-141.28;100.00;50283.09;5140036;27;20447;-75
2022/10/16 03:44:24;;;;;;;19.70;8.93;;;;;;;-141.28;100.00;50314.50;5141164;27;20446;-76
2022/10/16 03:46:51;;;;;;;20.43;9.17;;;;;;;-141.28;100.00;50338.06;5140408;27;20487;-78
2022/10/16 03:49:18;;;;;;;11.57;8.17;;;;;;;-141.28;100.00;50381.25;5134145;27;20440;-78
2022/10/16 03:51:46;;;;;;;12.47;9.07;;;;;;;-141.28;100.00;50444.06;5133448;27;20957;-76
2022/10/16 03:54:13;;;;;;;13.70;8.50;;;;;;;-141.28;100.00;50449.94;5133337;27;20447;-76
2022/10/16 03:56:40;;;;;;;15.60;8.33;;;;;;;-141.28;100.00;50495.09;5133983;27;20428;-79
2022/10/16 03:59:07;;;;;;;15.70;8.50;;;;;;;-141.28;100.00;50487.25;5133140;27;21051;-78
2022/10/16 04:01:36;;;;;;;11.37;7.20;;;;;;;-141.28;100.00;50506.88;5132991;27;20451;-78
2022/10/16 04:04:03;;;;;;;12.60;7.33;;;;;;;-141.28;100.00;50561.81;5133115;27;20463;-75
2022/10/16 04:06:31;;;;;;;22.37;8.43;;;;;;;-141.28;100.00;50542.19;5132809;27;20899;-78
2022/10/16 04:08:59;;;;;;;19.33;7.80;;;;;;;-141.28;100.00;50620.72;5133033;27;20475;-77
2022/10/16 04:11:27;;;;;;;11.40;6.67;;;;;;;-141.28;100.00;50695.31;5132803;27;20821;-77
2022/10/16 04:13:55;;;;;;;19.10;8.57;;;;;;;-141.28;100.00;50746.34;5132943;27;20498;-74
2022/10/16 04:16:22;;;;;;;13.30;6.80;;;;;;;-141.28;100.00;50793.47;5132910;27;20448;-78
2022/10/16 04:18:49;;;;;;;11.17;6.97;;;;;;;-141.28;100.00;50834.69;5133401;27;20448;-75
2022/10/16 04:21:16;;;;;;;12.53;7.33;;;;;;;-141.28;100.00;50946.59;5132183;27;20466;-77
2022/10/16 04:23:43;;;;;;;12.47;7.73;;;;;;;-141.28;100.00;50991.72;5134919;27;20478;-75
2022/10/16 04:26:12;;;;;;;14.27;7.13;;;;;;;-141.28;100.00;51019.22;5133034;27;20969;-75
2022/10/16 04:28:39;;;;;;;10.97;7.33;;;;;;;-141.28;100.00;50883.75;5134009;27;20440;-76
2022/10/16 04:31:07;;;;;;;13.03;6.97;;;;;;;-141.28;100.00;50663.91;5133556;27;21017;-78
2022/10/16 04:33:35;;;;;;;18.73;8.03;;;;;;;-141.28;100.00;50820.94;5133581;27;20454;-77
2022/10/16 04:36:04;;;;;;;12.03;7.97;;;;;;;-141.28;100.00;50773.81;5132760;27;20953;-80
2022/10/16 04:38:32;;;;;;;13.63;7.83;;;;;;;-141.28;100.00;50809.16;5133211;27;20444;-80
2022/10/16 04:40:59;;;;;;;24.67;9.73;;;;;;;-141.28;100.00;50970.13;5120483;28;20448;-77
2022/10/16 04:43:28;;;;;;;15.87;8.30;;;;;;;-141.28;100.00;51127.19;5132998;28;20450;-74
2022/10/16 04:45:56;;;;;;;11.93;7.83;;;;;;;-141.28;100.00;51197.88;5132541;28;20583;-77
2022/10/16 04:48:23;;;;;;;20.60;9.10;;;;;;;-141.28;100.00;51225.34;5132310;28;20487;-79
2022/10/16 04:50:52;;;;;;;14.50;7.80;;;;;;;-141.28;100.00;51264.63;5132781;28;20452;-79
2022/10/16 04:53:19;;;;;;;14.17;8.30;;;;;;;-141.28;100.00;51343.16;5132029;28;20454;-76
2022/10/16 04:55:46;;;;;;;11.53;7.73;;;;;;;-141.28;100.00;51358.88;5132137;28;20841;-79
2022/10/16 04:58:14;;;;;;;10.93;7.47;;;;;;;-141.28;100.00;51178.25;5132414;27;20556;-78
2022/10/16 05:00:42;;;;;;;12.50;8.80;;;;;;;-141.28;100.00;51178.25;5131856;28;20452;-81
2022/10/16 05:03:09;;;;;;;12.53;7.93;;;;;;;-141.28;100.00;51229.28;5132391;28;20432;-76
2022/10/16 05:05:36;;;;;;;11.23;7.70;;;;;;;-141.28;100.00;51270.50;5132134;28;20840;-76
2022/10/16 05:08:04;;;;;;;15.23;8.30;;;;;;;-141.28;100.00;51292.13;5131826;28;20998;-79
2022/10/16 05:10:31;;;;;;;17.73;9.20;;;;;;;-141.28;100.00;51337.28;5132499;28;20447;-77
2022/10/16 05:12:59;;;;;;;13.53;7.87;;;;;;;-141.28;100.00;51360.81;5131714;28;20882;-76
2022/10/16 05:15:25;;;;;;;13.23;8.03;;;;;;;-141.28;100.00;51378.50;5131977;28;20448;-76
2022/10/16 05:17:55;;;;;;;14.07;7.17;;;;;;;-141.28;100.00;51398.13;5131623;28;20840;-78
2022/10/16 05:20:23;;;;;;;11.90;7.30;;;;;;;-141.28;100.00;51394.22;5133542;27;20447;-79
2022/10/16 05:22:50;;;;;;;19.23;7.77;;;;;;;-141.28;100.00;51388.31;5136200;27;20440;-81
2022/10/16 05:25:18;;;;;;;11.80;6.97;;;;;;;-141.28;100.00;51563.06;5136165;27;20530;-78
2022/10/16 05:27:47;;;;;;;12.80;7.23;;;;;;;-141.28;100.00;51623.94;5135652;27;21093;-76
2022/10/16 05:30:14;;;;;;;14.17;7.57;;;;;;;-141.28;100.00;51608.22;5135983;27;20435;-77
2022/10/16 05:32:41;;;;;;;12.97;7.17;;;;;;;-141.28;100.00;51394.22;5135627;27;20968;-79
2022/10/16 05:35:10;;;;;;;13.47;6.97;;;;;;;-141.28;100.00;50974.06;5135890;27;20485;-76
2022/10/16 05:37:37;;;;;;;14.67;6.40;;;;;;;-141.28;100.00;50797.38;5135854;27;20451;-75
2022/10/16 05:40:04;;;;;;;16.90;6.47;;;;;;;-141.28;100.00;50852.34;5136104;27;20214;-78
2022/10/16 05:42:32;;;;;;;12.30;6.33;;;;;;;-141.28;100.00;51292.13;5135232;27;20594;-78
2022/10/16 05:44:58;;;;;;;9.40;5.90;;;;;;;-141.28;100.00;51653.38;5135724;27;20634;-78
2022/10/16 05:47:25;;;;;;;12.33;6.13;;;;;;;-141.28;100.00;51849.75;5135850;27;20222;-78
2022/10/16 05:49:53;;;;;;;15.40;6.80;;;;;;;-141.28;100.00;52030.41;5123170;27;20195;-75
2022/10/16 05:52:21;;;;;;;17.00;7.40;;;;;;;-141.28;100.00;52069.69;5135918;27;20209;-78
2022/10/16 05:54:48;;;;;;;15.77;7.73;;;;;;;-141.28;100.00;52183.59;5138023;27;20672;-80
2022/10/16 05:57:15;;;;;;;11.77;7.00;;;;;;;-141.28;100.00;52360.34;5141948;27;20277;-77
2022/10/16 05:59:42;;;;;;;10.27;7.37;;;;;;;-141.28;100.00;52383.91;5143960;27;20198;-75
2022/10/16 06:02:13;;;;;;;11.77;7.60;;;;;;;-141.28;100.00;52419.25;5139333;27;20206;-78
2022/10/16 06:04:41;;;;;;;13.97;6.83;;;;;;;-141.28;100.00;52271.97;5135731;27;20209;-78
2022/10/16 06:07:07;;;;;;;9.73;7.10;;;;;;;-141.28;100.00;52118.78;5135721;27;20226;-78
2022/10/16 06:09:36;;;;;;;11.97;7.10;;;;;;;-141.28;100.00;51896.88;5135089;27;20233;-78
2022/10/16 06:12:04;;;;;;;14.80;7.50;;;;;;;-141.28;100.00;51733.88;5135856;27;20280;-78
2022/10/16 06:14:32;;;;;;;11.07;7.53;;;;;;;-141.28;100.00;51547.34;5135428;27;20197;-79
2022/10/16 06:16:58;;;;;;;9.00;7.23;;;;;;;-141.28;100.00;51437.41;5135195;27;20202;-76
2022/10/16 06:19:25;;;;;;;15.73;7.20;;;;;;;-141.28;100.00;51325.50;5135425;27;20326;-81
2022/10/16 06:21:52;;;;;;;11.87;6.70;;;;;;;-141.28;100.00;51193.94;5118071;27;20368;-79
2022/10/16 06:24:19;;;;;;;12.30;7.43;;;;;;;-141.28;100.00;51195.91;5136123;27;20198;-76
2022/10/16 06:26:47;;;;;;;14.77;7.47;;;;;;;-141.28;100.00;51158.59;5135668;27;20226;-76
2022/10/16 06:29:14;;;;;;;15.43;7.27;;;;;;;-141.28;100.00;51131.13;5135116;27;20198;-79
2022/10/16 06:31:43;;;;;;;11.80;7.13;;;;;;;-141.28;100.00;51140.94;5134323;27;20206;-75
2022/10/16 06:34:11;;;;;;;14.57;7.33;;;;;;;-141.28;100.00;51148.78;5134722;27;20198;-76
2022/10/16 06:36:38;;;;;;;12.20;7.77;;;;;;;-141.28;100.00;51199.84;5134868;27;20202;-74
2022/10/16 06:39:07;;;;;;;17.67;7.80;;;;;;;-141.28;100.00;51184.13;5134417;27;20210;-79
2022/10/16 06:41:34;;;;;;;14.03;6.90;;;;;;;-141.28;100.00;51245.00;5134763;27;20234;-76
2022/10/16 06:44:05;;;;;;;12.63;6.60;;;;;;;-141.28;100.00;51241.06;5134539;27;20588;-77
2022/10/16 06:46:32;;;;;;;11.77;6.17;;;;;;;-141.28;100.00;51215.53;5134652;27;20202;-77
2022/10/16 06:49:01;;;;;;;13.57;6.40;;;;;;;-141.28;100.00;51197.88;5134444;27;20229;-77
2022/10/16 06:51:28;;;;;;;11.47;7.07;;;;;;;-141.28;100.00;51205.72;5114787;28;20203;-79
2022/10/16 06:53:57;;;;;;;20.67;8.70;;;;;;;-141.28;100.00;51199.84;5127892;27;20285;-79
2022/10/16 06:56:26;;;;;;;12.80;6.80;;;;;;;-141.28;100.00;51245.00;5134429;27;20202;-80
2022/10/16 06:58:53;;;;;;;15.47;7.23;;;;;;;-141.28;100.00;51235.19;5133964;27;20218;-77
2022/10/16 07:01:24;;;;;;;18.50;7.63;;;;;;;-141.28;100.00;51241.06;5134284;27;20206;-79
2022/10/16 07:03:52;;;;;;;13.27;7.80;;;;;;;-141.28;100.00;51245.00;5133983;27;20198;-79
2022/10/16 07:06:20;;;;;;;11.90;6.77;;;;;;;-141.28;100.00;51258.72;5134122;27;20202;-78
2022/10/16 07:08:48;;;;;;;9.83;5.93;;;;;;;-141.28;100.00;51225.34;5124937;27;20250;-76
2022/10/16 07:11:17;;;;;;;10.20;6.27;;;;;;;-141.28;100.00;51252.84;5129720;27;20198;-77
2022/10/16 07:13:46;;;;;;;8.07;6.07;;;;;;;-141.28;100.00;51284.25;5124794;27;20692;-77
2022/10/16 07:16:16;;;;;;;8.43;6.30;;;;;;;-141.28;100.00;51288.19;5130670;27;20202;-77
2022/10/16 07:18:46;;;;;;;10.00;6.50;;;;;;;-141.28;100.00;51323.53;5134195;27;20198;-80
2022/10/16 07:21:14;;;;;;;10.77;6.30;;;;;;;-141.28;100.00;51354.94;5134064;27;20194;-80
2022/10/16 07:23:42;;;;;;;8.67;6.43;;;;;;;-141.28;100.00;51331.38;5134036;27;20202;-76
2022/10/16 07:26:09;;;;;;;13.30;6.63;;;;;;;-141.28;100.00;51358.88;5133788;27;20206;-79
2022/10/16 07:28:36;;;;;;;10.20;5.63;;;;;;;-141.28;100.00;51315.66;5133658;27;20696;-76
2022/10/16 07:31:05;;;;;;;11.60;5.80;;;;;;;-141.28;100.00;51301.94;5133793;27;20220;-77
2022/10/16 07:33:32;;;;;;;9.90;6.07;;;;;;;-141.28;100.00;51272.47;5134010;27;20202;-77
2022/10/16 07:36:01;;;;;;;11.77;6.40;;;;;;;-141.28;100.00;51288.19;5133747;27;20584;-79
2022/10/16 07:38:28;;;;;;;10.97;5.27;;;;;;;-141.28;100.00;51299.97;5133394;27;20657;-77
2022/10/16 07:40:59;;;;;;;9.93;5.47;;;;;;;-141.28;100.00;51339.22;5133521;27;20210;-79
2022/10/16 07:43:27;;;;;;;8.13;5.27;;;;;;;-141.28;100.00;51362.78;5132958;27;20758;-77
2022/10/16 07:45:54;;;;;;;11.87;5.73;;;;;;;-141.28;100.00;51358.88;5133691;27;20293;-75
2022/10/16 07:48:22;;;;;;;9.33;5.53;;;;;;;-141.28;100.00;51321.56;5119644;27;20227;-76
2022/10/16 07:50:50;;;;;;;9.23;5.93;;;;;;;-141.28;100.00;51356.91;5133409;27;20206;-75
2022/10/16 07:53:19;;;;;;;10.43;5.43;;;;;;;-141.28;100.00;51321.56;5133137;27;20228;-76
2022/10/16 07:55:46;;;;;;;11.40;5.90;;;;;;;-141.28;100.00;51262.66;5137262;27;20197;-77
2022/10/16 07:58:13;;;;;;;8.33;5.07;;;;;;;-141.28;100.00;51288.19;5139634;27;20232;-75
2022/10/16 08:00:40;;;;;;;10.67;5.33;;;;;;;-141.28;100.00;51254.81;5136169;27;20214;-77
2022/10/16 08:03:07;;;;;;;12.07;5.57;;;;;;;-141.28;100.00;51225.34;5133146;27;20684;-76
2022/10/16 08:05:35;;;;;;;10.37;6.10;;;;;;;-141.28;100.00;51146.81;5133215;27;20657;-77
2022/10/16 08:08:02;;;;;;;9.43;5.60;;;;;;;-141.28;100.00;51146.81;5132259;27;20681;-76
2022/10/16 08:10:31;;;;;;;11.77;5.67;;;;;;;-141.28;100.00;51115.41;5132870;27;20206;-76
2022/10/16 08:12:59;;;;;;;8.07;5.70;;;;;;;-141.28;100.00;51056.53;5132959;27;20206;-77
2022/10/16 08:15:28;;;;;;;9.30;5.93;;;;;;;-141.28;100.00;51115.41;5132734;27;20237;-77
2022/10/16 08:17:59;;;;;;;9.10;5.67;;;;;;;-141.28;100.00;51087.94;5132706;27;20206;-79
2022/10/16 08:20:27;;;;;;;9.00;5.67;;;;;;;-141.28;100.00;51078.13;5132604;27;20202;-78
2022/10/16 08:22:55;;;;;;;9.30;5.73;;;;;;;-141.28;100.00;51109.53;5132230;27;20225;-75
2022/10/16 08:25:23;;;;;;;6.23;4.67;;;;;;;-141.28;100.00;50968.19;5133297;27;20258;-80
2022/10/16 08:27:51;;;;;;;5.50;4.70;;;;;;;-141.28;100.00;50817.03;5132422;27;20236;-78
2022/10/16 08:30:20;;;;;;;9.40;5.23;;;;;;;-141.28;100.00;50695.31;5132826;27;20212;-78
2022/10/16 08:32:47;;;;;;;10.50;4.30;;;;;;;-141.28;100.00;50432.28;5132056;27;20578;-76
2022/10/16 08:35:15;;;;;;;5.73;4.67;;;;;;;-141.28;100.00;50365.53;5132738;27;20270;-79
2022/10/16 08:37:42;;;;;;;10.63;5.10;;;;;;;-141.28;100.00;50267.41;5132674;27;20206;-79
2022/10/16 08:40:18;;;;;;;5.43;4.10;;;;;;;-141.28;100.00;50245.81;5132477;28;20209;-79
2022/10/16 08:43:07;;;;;;;9.20;4.37;;;;;;;-141.28;100.00;50546.13;5120837;28;20595;-76
2022/10/16 08:46:06;;;;;;;7.60;4.17;;;;;;;-141.28;100.00;50459.75;5131955;28;20206;-80
2022/10/16 08:48:45;;;;;;;6.30;4.00;;;;;;;-141.28;100.00;50497.06;5126748;28;20591;-78
2022/10/16 08:51:19;;;;;;;4.83;3.87;;;;;;;-141.28;100.00;50471.53;5132654;28;20588;-76
2022/10/16 08:53:50;;;;;;;5.17;4.00;;;;;;;-141.28;100.00;50322.34;5132690;28;20198;-78
2022/10/16 08:56:19;;;;;;;10.53;4.17;;;;;;;-141.28;100.00;50145.72;5136459;27;20194;-75
2022/10/16 08:58:47;;;;;;;8.30;4.20;;;;;;;-141.28;100.00;50181.03;5138755;27;20218;-78
2022/10/16 09:01:16;;;;;;;4.70;3.70;;;;;;;-141.28;100.00;49994.59;5136448;27;20256;-77
2022/10/16 09:04:17;;;;;;;6.10;3.40;;;;;;;-141.28;100.00;49839.56;5136790;27;20209;-78
2022/10/16 09:06:49;;;;;;;7.67;3.43;;;;;;;-141.28;100.00;49823.84;5133106;27;20198;-78
2022/10/16 09:09:41;;;;;;;4.70;3.43;;;;;;;-141.28;100.00;49776.75;5136047;27;20248;-80
2022/10/16 09:12:19;;;;;;;4.57;3.70;;;;;;;-141.28;100.00;49678.63;5136054;27;20210;-79
2022/10/16 09:15:03;;;;;;;5.43;3.60;;;;;;;-141.28;100.00;49662.94;5123527;27;20198;-77
2022/10/16 09:17:44;;;;;;;5.80;3.40;;;;;;;-141.28;100.00;49698.25;5136395;27;20284;-80
2022/10/16 09:20:40;;;;;;;5.93;3.70;;;;;;;-141.28;100.00;49615.84;5136399;27;20234;-78
2022/10/16 09:23:26;;;;;;;3.67;3.33;;;;;;;-141.28;100.00;49555.00;5136342;27;20206;-77
2022/10/16 09:25:55;;;;;;;5.27;3.40;;;;;;;-141.28;100.00;50216.38;5125445;27;20218;-80
2022/10/16 09:28:22;;;;;;;6.00;3.57;;;;;;;-141.28;100.00;49329.34;5136349;27;20273;-78
2022/10/16 09:30:50;;;;;;;4.27;3.10;;;;;;;-141.28;100.00;49431.38;5135756;27;20597;-79
2022/10/16 09:33:19;;;;;;;4.93;3.20;;;;;;;-141.28;100.00;49290.09;5135859;27;20226;-77
2022/10/16 09:35:50;;;;;;;5.63;3.43;;;;;;;-141.28;100.00;49335.22;5135545;27;20573;-79
2022/10/16 09:38:27;;;;;;;4.63;3.13;;;;;;;-141.28;100.00;49329.34;5138052;27;20198;-75
2022/10/16 09:40:55;;;;;;;6.47;3.60;;;;;;;-141.28;100.00;49384.28;5137367;27;20212;-75
2022/10/16 09:43:27;;;;;;;5.27;3.67;;;;;;;-141.28;100.00;49470.63;5137363;27;20198;-79
2022/10/16 09:45:56;;;;;;;4.00;3.40;;;;;;;-141.28;100.00;49305.78;5137400;27;20223;-75
2022/10/16 09:48:23;;;;;;;6.43;3.33;;;;;;;-141.28;100.00;49388.22;5137721;27;20299;-77
2022/10/16 09:51:00;;;;;;;6.00;3.43;;;;;;;-141.28;100.00;49331.31;5136589;27;20194;-79
2022/10/16 09:53:42;;;;;;;6.80;3.73;;;;;;;-141.28;100.00;49180.22;5136029;27;20216;-81
2022/10/16 09:56:14;;;;;;;5.33;3.77;;;;;;;-141.28;100.00;49252.81;5135890;27;20205;-80
2022/10/16 09:58:50;;;;;;;4.57;3.67;;;;;;;-141.28;100.00;49197.88;5134898;27;20261;-78
2022/10/16 10:01:18;;;;;;;4.50;3.60;;;;;;;-141.28;100.00;49188.06;5135017;27;20736;-80
2022/10/16 10:03:46;;;;;;;5.73;3.30;;;;;;;-141.28;97.63;49168.44;5135140;27;20680;-76
2022/10/16 10:06:23;;;;;;;6.77;3.17;;;;;;;-141.28;93.05;49156.66;5134789;27;20206;-80
2022/10/16 10:08:59;;;;;;;6.30;3.60;;;;;;;-141.28;93.19;49176.28;5135463;27;20653;-79
2022/10/16 10:11:45;;;;;;;7.97;3.50;;;;;;;-141.28;83.47;49184.13;5135354;27;20194;-80
2022/10/16 10:14:19;;;;;;;7.73;3.60;;;;;;;-141.28;79.00;49168.44;5135067;27;20210;-77
2022/10/16 10:16:47;;;;;;;3.80;2.97;;;;;;;-141.28;79.96;49176.28;5135569;27;20198;-76
2022/10/16 10:19:19;;;;;;;4.23;3.70;;;;;;;-141.28;81.55;49203.75;5136504;27;20671;-78
2022/10/16 10:21:48;;;;;;;4.67;2.97;;;;;;;-141.28;81.74;49223.38;5118730;27;20210;-76
2022/10/16 10:24:17;;;;;;;4.17;3.00;;;;;;;-141.28;74.57;49176.28;5135944;27;20190;-75
2022/10/16 10:26:52;;;;;;;5.27;3.57;;;;;;;-141.28;77.24;49215.53;5117089;27;20237;-79
2022/10/16 10:29:32;;;;;;;4.70;2.50;;;;;;;-141.28;75.84;49105.66;5134914;27;20328;-80
2022/10/16 10:32:08;;;;;;;5.57;2.87;;;;;;;-141.28;70.87;49137.06;5135411;27;20271;-77
2022/10/16 10:34:50;;;;;;;5.17;2.83;;;;;;;-141.28;64.66;49184.13;5142148;27;20202;-76
2022/10/16 10:37:34;;;;;;;3.30;2.70;;;;;;;-141.28;67.27;49199.84;5141818;27;20639;-76
2022/10/16 10:40:12;;;;;;;4.33;3.07;;;;;;;-141.28;66.86;49199.84;5140273;27;20208;-77
2022/10/16 10:42:49;;;;;;;3.67;2.90;;;;;;;-141.28;71.38;49209.66;5135776;27;20612;-78
2022/10/16 10:45:26;;;;;;;4.33;2.40;;;;;;;-141.28;58.69;49174.34;5135441;27;20209;-77
2022/10/16 10:48:07;;;;;;;2.70;2.27;;;;;;;-141.28;58.33;49186.09;5137055;27;20632;-77
2022/10/16 10:50:43;;;;;;;3.70;2.60;;;;;;;-141.28;60.46;49190.03;5137738;27;20201;-75
2022/10/16 10:53:23;;;;;;;5.00;2.70;;;;;;;-141.28;58.46;49186.09;5138086;27;20197;-80
2022/10/16 10:55:55;;;;;;;4.13;2.33;;;;;;;-141.28;59.56;49192.00;5136558;27;20206;-77
2022/10/16 10:58:45;;;;;;;3.00;2.43;;;;;;;-141.28;59.61;49195.91;5136348;27;20222;-80
2022/10/16 11:01:15;;;;;;;3.90;2.30;;;;;;;-141.28;59.30;49082.13;5136972;27;20202;-78
2022/10/16 11:04:20;;;;;;;4.00;2.70;;;;;;;-141.28;58.73;49144.91;5121398;27;20199;-80
2022/10/16 11:06:50;;;;;;;6.27;2.40;;;;;;;-141.28;59.05;49164.53;5134090;27;20252;-79
2022/10/16 11:09:26;;;;;;;3.87;3.47;;;;;;;-141.28;61.76;49209.66;5134201;27;20234;-78
2022/10/16 11:11:59;;;;;;;6.10;3.10;;;;;;;-141.28;66.76;49176.28;5133874;27;20660;-77
2022/10/16 11:14:31;;;;;;;4.13;2.97;;;;;;;-141.28;63.37;49111.53;5133655;27;20209;-79
2022/10/16 11:17:05;;;;;;;4.97;2.43;;;;;;;-141.28;58.35;49113.50;5106229;28;20252;-79
2022/10/16 11:19:41;;;;;;;6.10;3.07;;;;;;;-141.28;58.86;49117.44;5130176;27;20252;-80